sensor_id;sensor_type;location;lat;lon;timestamp;pressure;altitude;pressure_sealevel;temperature;humidity
63500;BME280;49654;51.142;14.924;2023-05-19T00:01:17;100005.84;;;9.65;68.61
63500;BME280;49654;51.142;14.924;2023-05-19T00:03:51;100118.19;;;10.29;68.18
63500;BME280;49654;51.142;14.924;2023-05-19T00:06:22;100113.19;;;10.18;69.13
63500;BME280;49654;51.142;14.924;2023-05-19T00:08:55;100071.78;;;9.81;69.86
63500;BME280;49654;51.142;14.924;2023-05-19T00:11:23;100112.72;;;10.04;70.25
63500;BME280;49654;51.142;14.924;2023-05-19T00:13:51;100115.50;;;10.03;70.49
63500;BME280;49654;51.142;14.924;2023-05-19T00:16:20;100115.84;;;10.08;70.73
63500;BME280;49654;51.142;14.924;2023-05-19T00:18:47;100117.94;;;10.04;71.03
63500;BME280;49654;51.142;14.924;2023-05-19T00:21:14;100029.25;;;9.56;70.24
63500;BME280;49654;51.142;14.924;2023-05-19T00:23:42;100115.25;;;10.14;70.14
63500;BME280;49654;51.142;14.924;2023-05-19T00:26:09;100101.97;;;10.17;69.87
63500;BME280;49654;51.142;14.924;2023-05-19T00:28:36;100038.06;;;9.81;69.48
63500;BME280;49654;51.142;14.924;2023-05-19T00:31:04;100072.09;;;9.95;69.31
63500;BME280;49654;51.142;14.924;2023-05-19T00:33:32;100088.03;;;10.00;69.53
63500;BME280;49654;51.142;14.924;2023-05-19T00:36:00;100104.50;;;10.09;70.02
63500;BME280;49654;51.142;14.924;2023-05-19T00:38:29;100051.56;;;9.66;70.22
63500;BME280;49654;51.142;14.924;2023-05-19T00:40:56;100099.69;;;10.14;69.69
63500;BME280;49654;51.142;14.924;2023-05-19T00:43:23;100099.75;;;10.22;69.52
63500;BME280;49654;51.142;14.924;2023-05-19T00:45:51;100097.75;;;10.16;69.54
63500;BME280;49654;51.142;14.924;2023-05-19T00:48:17;100089.47;;;10.13;69.65
63500;BME280;49654;51.142;14.924;2023-05-19T00:50:47;100078.72;;;10.08;69.40
63500;BME280;49654;51.142;14.924;2023-05-19T00:53:16;100082.19;;;10.16;69.60
63500;BME280;49654;51.142;14.924;2023-05-19T00:55:43;100066.53;;;10.08;70.05
63500;BME280;49654;51.142;14.924;2023-05-19T00:58:12;100097.25;;;10.31;69.68
63500;BME280;49654;51.142;14.924;2023-05-19T01:00:39;100069.22;;;10.16;70.17
63500;BME280;49654;51.142;14.924;2023-05-19T01:03:07;100071.53;;;10.19;69.56
63500;BME280;49654;51.142;14.924;2023-05-19T01:05:37;100043.13;;;10.00;69.79
63500;BME280;49654;51.142;14.924;2023-05-19T01:08:07;100094.53;;;10.32;69.84
63500;BME280;49654;51.142;14.924;2023-05-19T01:10:35;100098.53;;;10.26;70.08
63500;BME280;49654;51.142;14.924;2023-05-19T01:13:03;100091.53;;;10.27;70.44
63500;BME280;49654;51.142;14.924;2023-05-19T01:15:32;100070.69;;;10.19;70.25
63500;BME280;49654;51.142;14.924;2023-05-19T01:18:05;99954.34;;;9.35;70.70
63500;BME280;49654;51.142;14.924;2023-05-19T01:20:38;100097.75;;;10.16;71.04
63500;BME280;49654;51.142;14.924;2023-05-19T01:23:27;100095.16;;;10.16;70.66
63500;BME280;49654;51.142;14.924;2023-05-19T01:26:34;100095.97;;;10.17;71.30
63500;BME280;49654;51.142;14.924;2023-05-19T01:29:18;100098.72;;;10.15;71.32
63500;BME280;49654;51.142;14.924;2023-05-19T01:31:52;100074.69;;;9.95;71.42
63500;BME280;49654;51.142;14.924;2023-05-19T01:34:22;100095.81;;;10.00;72.18
63500;BME280;49654;51.142;14.924;2023-05-19T01:36:53;100086.56;;;9.98;72.22
63500;BME280;49654;51.142;14.924;2023-05-19T01:39:21;100083.66;;;10.01;71.60
63500;BME280;49654;51.142;14.924;2023-05-19T01:41:49;100030.06;;;9.56;71.42
63500;BME280;49654;51.142;14.924;2023-05-19T01:44:18;99981.78;;;9.27;71.93
63500;BME280;49654;51.142;14.924;2023-05-19T01:46:47;100058.97;;;9.79;71.93
63500;BME280;49654;51.142;14.924;2023-05-19T01:49:16;100100.94;;;10.10;71.37
63500;BME280;49654;51.142;14.924;2023-05-19T01:51:43;100051.09;;;9.71;71.42
63500;BME280;49654;51.142;14.924;2023-05-19T01:54:10;100101.69;;;10.02;71.52
63500;BME280;49654;51.142;14.924;2023-05-19T01:56:43;100053.16;;;9.67;71.56
63500;BME280;49654;51.142;14.924;2023-05-19T01:59:22;99967.84;;;9.11;71.62
63500;BME280;49654;51.142;14.924;2023-05-19T02:01:56;100102.44;;;9.95;71.25
63500;BME280;49654;51.142;14.924;2023-05-19T02:04:32;100062.59;;;9.68;71.85
63500;BME280;49654;51.142;14.924;2023-05-19T02:07:08;100077.19;;;9.69;71.91
63500;BME280;49654;51.142;14.924;2023-05-19T02:09:47;100115.06;;;9.80;72.21
63500;BME280;49654;51.142;14.924;2023-05-19T02:12:19;100114.06;;;9.91;72.16
63500;BME280;49654;51.142;14.924;2023-05-19T02:14:52;100075.56;;;9.68;71.88
63500;BME280;49654;51.142;14.924;2023-05-19T02:17:22;100103.41;;;9.66;72.36
63500;BME280;49654;51.142;14.924;2023-05-19T02:19:53;100026.53;;;9.30;72.35
63500;BME280;49654;51.142;14.924;2023-05-19T02:22:20;100027.19;;;9.32;72.25
63500;BME280;49654;51.142;14.924;2023-05-19T02:24:47;100110.41;;;9.84;72.23
63500;BME280;49654;51.142;14.924;2023-05-19T02:27:16;100107.53;;;9.87;72.98
63500;BME280;49654;51.142;14.924;2023-05-19T02:29:43;100092.47;;;9.72;72.95
63500;BME280;49654;51.142;14.924;2023-05-19T02:32:10;100093.53;;;9.52;74.02
63500;BME280;49654;51.142;14.924;2023-05-19T02:34:37;100090.88;;;9.62;74.45
63500;BME280;49654;51.142;14.924;2023-05-19T02:37:05;100090.25;;;9.77;73.30
63500;BME280;49654;51.142;14.924;2023-05-19T02:39:33;100097.22;;;9.77;72.95
63500;BME280;49654;51.142;14.924;2023-05-19T02:42:00;99988.94;;;9.16;72.63
63500;BME280;49654;51.142;14.924;2023-05-19T02:44:27;100067.91;;;9.67;72.24
63500;BME280;49654;51.142;14.924;2023-05-19T02:46:54;100082.91;;;9.73;72.10
63500;BME280;49654;51.142;14.924;2023-05-19T02:49:21;100089.47;;;9.67;72.54
63500;BME280;49654;51.142;14.924;2023-05-19T02:51:48;100082.66;;;9.66;72.64
63500;BME280;49654;51.142;14.924;2023-05-19T02:54:16;99923.25;;;8.62;72.62
63500;BME280;49654;51.142;14.924;2023-05-19T02:56:43;100070.66;;;9.47;72.74
63500;BME280;49654;51.142;14.924;2023-05-19T02:59:10;100081.56;;;9.41;73.66
63500;BME280;49654;51.142;14.924;2023-05-19T03:01:37;100081.72;;;9.40;73.51
63500;BME280;49654;51.142;14.924;2023-05-19T03:04:05;100080.56;;;9.24;74.40
63500;BME280;49654;51.142;14.924;2023-05-19T03:06:31;100018.97;;;8.81;74.19
63500;BME280;49654;51.142;14.924;2023-05-19T03:08:58;100076.13;;;9.17;74.75
63500;BME280;49654;51.142;14.924;2023-05-19T03:11:27;100079.81;;;9.14;75.20
63500;BME280;49654;51.142;14.924;2023-05-19T03:13:54;100083.31;;;9.23;74.76
63500;BME280;49654;51.142;14.924;2023-05-19T03:16:21;100080.13;;;9.29;74.54
63500;BME280;49654;51.142;14.924;2023-05-19T03:18:48;100077.91;;;9.44;73.59
63500;BME280;49654;51.142;14.924;2023-05-19T03:21:15;100005.31;;;8.89;73.50
63500;BME280;49654;51.142;14.924;2023-05-19T03:23:42;100075.69;;;9.49;73.80
63500;BME280;49654;51.142;14.924;2023-05-19T03:26:09;100015.13;;;9.22;72.49
63500;BME280;49654;51.142;14.924;2023-05-19T03:28:37;99960.91;;;8.84;72.19
63500;BME280;49654;51.142;14.924;2023-05-19T03:31:04;100069.53;;;9.50;72.36
63500;BME280;49654;51.142;14.924;2023-05-19T03:33:31;100090.31;;;9.68;72.82
63500;BME280;49654;51.142;14.924;2023-05-19T03:35:58;100065.69;;;9.54;72.67
63500;BME280;49654;51.142;14.924;2023-05-19T03:38:25;100092.13;;;9.85;71.59
63500;BME280;49654;51.142;14.924;2023-05-19T03:40:52;100092.94;;;9.86;71.53
63500;BME280;49654;51.142;14.924;2023-05-19T03:43:19;100089.16;;;9.98;71.55
63500;BME280;49654;51.142;14.924;2023-05-19T03:45:47;100067.19;;;9.92;70.83
63500;BME280;49654;51.142;14.924;2023-05-19T03:48:14;100086.25;;;10.19;70.37
63500;BME280;49654;51.142;14.924;2023-05-19T03:50:41;100094.00;;;10.28;69.89
63500;BME280;49654;51.142;14.924;2023-05-19T03:53:09;100043.25;;;9.81;70.72
63500;BME280;49654;51.142;14.924;2023-05-19T03:55:36;100084.34;;;10.21;70.89
63500;BME280;49654;51.142;14.924;2023-05-19T03:58:03;100100.59;;;10.41;70.78
63500;BME280;49654;51.142;14.924;2023-05-19T04:00:30;100024.31;;;9.98;70.63
63500;BME280;49654;51.142;14.924;2023-05-19T04:02:58;100099.06;;;10.56;70.71
63500;BME280;49654;51.142;14.924;2023-05-19T04:05:25;100100.41;;;10.60;71.18
63500;BME280;49654;51.142;14.924;2023-05-19T04:07:52;100101.28;;;10.69;70.97
63500;BME280;49654;51.142;14.924;2023-05-19T04:10:19;100096.66;;;10.81;70.83
63500;BME280;49654;51.142;14.924;2023-05-19T04:12:47;100091.50;;;10.89;70.59
63500;BME280;49654;51.142;14.924;2023-05-19T04:15:13;100090.59;;;10.98;70.89
63500;BME280;49654;51.142;14.924;2023-05-19T04:17:41;100092.72;;;11.02;70.98
63500;BME280;49654;51.142;14.924;2023-05-19T04:20:10;100088.84;;;11.07;71.39
63500;BME280;49654;51.142;14.924;2023-05-19T04:22:37;100090.84;;;11.21;71.67
63500;BME280;49654;51.142;14.924;2023-05-19T04:25:05;100055.91;;;11.15;71.09
63500;BME280;49654;51.142;14.924;2023-05-19T04:27:32;100090.47;;;11.50;70.88
63500;BME280;49654;51.142;14.924;2023-05-19T04:30:01;100090.56;;;11.74;69.84
63500;BME280;49654;51.142;14.924;2023-05-19T04:32:28;100081.59;;;11.77;69.07
63500;BME280;49654;51.142;14.924;2023-05-19T04:34:55;100065.19;;;11.76;69.40
63500;BME280;49654;51.142;14.924;2023-05-19T04:37:25;100007.44;;;11.57;68.78
63500;BME280;49654;51.142;14.924;2023-05-19T04:39:52;100076.81;;;12.15;68.45
63500;BME280;49654;51.142;14.924;2023-05-19T04:42:19;100079.72;;;12.28;68.22
63500;BME280;49654;51.142;14.924;2023-05-19T04:44:46;100080.06;;;12.33;66.88
63500;BME280;49654;51.142;14.924;2023-05-19T04:47:13;100096.34;;;12.51;66.34
63500;BME280;49654;51.142;14.924;2023-05-19T04:49:41;100051.91;;;12.04;65.27
63500;BME280;49654;51.142;14.924;2023-05-19T04:52:09;100094.06;;;12.24;66.03
63500;BME280;49654;51.142;14.924;2023-05-19T04:54:38;100064.47;;;12.17;66.27
63500;BME280;49654;51.142;14.924;2023-05-19T04:57:06;100071.91;;;12.28;65.49
63500;BME280;49654;51.142;14.924;2023-05-19T04:59:35;99993.66;;;11.89;65.87
63500;BME280;49654;51.142;14.924;2023-05-19T05:02:02;100082.34;;;12.44;65.51
63500;BME280;49654;51.142;14.924;2023-05-19T05:04:28;100100.25;;;12.64;65.48
63500;BME280;49654;51.142;14.924;2023-05-19T05:06:55;100084.44;;;12.57;64.93
63500;BME280;49654;51.142;14.924;2023-05-19T05:09:22;100098.75;;;12.86;64.63
63500;BME280;49654;51.142;14.924;2023-05-19T05:11:51;100102.00;;;12.79;64.35
63500;BME280;49654;51.142;14.924;2023-05-19T05:14:19;100083.25;;;12.76;64.89
63500;BME280;49654;51.142;14.924;2023-05-19T05:16:46;100092.53;;;12.87;63.87
63500;BME280;49654;51.142;14.924;2023-05-19T05:19:13;100092.19;;;12.98;63.92
63500;BME280;49654;51.142;14.924;2023-05-19T05:22:24;100085.03;;;12.92;64.14
63500;BME280;49654;51.142;14.924;2023-05-19T05:24:52;100081.13;;;12.96;63.55
63500;BME280;49654;51.142;14.924;2023-05-19T05:27:19;100085.31;;;13.05;63.50
63500;BME280;49654;51.142;14.924;2023-05-19T05:29:46;100092.66;;;13.01;63.81
63500;BME280;49654;51.142;14.924;2023-05-19T05:32:12;100081.09;;;13.04;64.12
63500;BME280;49654;51.142;14.924;2023-05-19T05:34:41;100093.50;;;13.02;64.36
63500;BME280;49654;51.142;14.924;2023-05-19T05:37:08;100092.00;;;13.24;64.33
63500;BME280;49654;51.142;14.924;2023-05-19T05:39:37;100097.00;;;13.34;64.29
63500;BME280;49654;51.142;14.924;2023-05-19T05:42:04;100104.28;;;13.46;63.28
63500;BME280;49654;51.142;14.924;2023-05-19T05:44:31;100012.75;;;13.17;63.68
63500;BME280;49654;51.142;14.924;2023-05-19T05:47:00;100097.63;;;13.75;62.58
63500;BME280;49654;51.142;14.924;2023-05-19T05:49:28;100087.00;;;13.45;62.70
63500;BME280;49654;51.142;14.924;2023-05-19T05:51:56;100080.47;;;13.49;63.06
63500;BME280;49654;51.142;14.924;2023-05-19T05:54:23;100097.78;;;13.73;62.62
63500;BME280;49654;51.142;14.924;2023-05-19T05:56:52;100110.50;;;13.99;61.94
63500;BME280;49654;51.142;14.924;2023-05-19T05:59:19;100073.91;;;13.85;60.63
63500;BME280;49654;51.142;14.924;2023-05-19T06:01:46;100104.97;;;14.17;60.88
63500;BME280;49654;51.142;14.924;2023-05-19T06:04:13;100093.50;;;14.03;60.23
63500;BME280;49654;51.142;14.924;2023-05-19T06:06:40;100099.19;;;14.07;60.55
63500;BME280;49654;51.142;14.924;2023-05-19T06:09:07;100105.06;;;14.47;59.49
63500;BME280;49654;51.142;14.924;2023-05-19T06:11:34;100072.69;;;14.33;59.29
63500;BME280;49654;51.142;14.924;2023-05-19T06:14:02;100114.25;;;14.43;59.28
63500;BME280;49654;51.142;14.924;2023-05-19T06:16:29;100118.03;;;14.63;60.62
63500;BME280;49654;51.142;14.924;2023-05-19T06:18:56;100024.13;;;14.39;58.37
63500;BME280;49654;51.142;14.924;2023-05-19T06:21:24;100105.63;;;14.65;59.13
63500;BME280;49654;51.142;14.924;2023-05-19T06:23:51;100091.22;;;14.99;58.24
63500;BME280;49654;51.142;14.924;2023-05-19T06:26:18;100104.72;;;15.32;57.61
63500;BME280;49654;51.142;14.924;2023-05-19T06:28:45;100104.19;;;14.92;57.67
63500;BME280;49654;51.142;14.924;2023-05-19T06:31:13;100110.84;;;14.65;57.20
63500;BME280;49654;51.142;14.924;2023-05-19T06:33:41;100111.16;;;14.47;56.95
63500;BME280;49654;51.142;14.924;2023-05-19T06:36:08;100097.22;;;14.32;56.04
63500;BME280;49654;51.142;14.924;2023-05-19T06:38:35;100114.47;;;14.18;57.37
63500;BME280;49654;51.142;14.924;2023-05-19T06:41:02;100124.31;;;14.08;56.75
63500;BME280;49654;51.142;14.924;2023-05-19T06:43:29;100124.41;;;14.23;55.79
63500;BME280;49654;51.142;14.924;2023-05-19T06:45:56;100123.97;;;14.34;56.88
63500;BME280;49654;51.142;14.924;2023-05-19T06:48:24;100131.47;;;14.37;56.43
63500;BME280;49654;51.142;14.924;2023-05-19T06:50:51;100120.56;;;14.57;54.37
63500;BME280;49654;51.142;14.924;2023-05-19T06:53:19;100116.22;;;14.49;53.70
63500;BME280;49654;51.142;14.924;2023-05-19T06:55:46;100122.28;;;14.64;52.76
63500;BME280;49654;51.142;14.924;2023-05-19T06:58:14;100115.97;;;14.59;52.49
63500;BME280;49654;51.142;14.924;2023-05-19T07:00:41;100107.06;;;14.68;53.42
63500;BME280;49654;51.142;14.924;2023-05-19T07:03:08;100106.19;;;14.90;53.52
63500;BME280;49654;51.142;14.924;2023-05-19T07:05:37;100100.41;;;15.24;52.90
63500;BME280;49654;51.142;14.924;2023-05-19T07:08:04;100110.66;;;15.56;52.60
63500;BME280;49654;51.142;14.924;2023-05-19T07:10:32;100106.63;;;15.23;53.51
63500;BME280;49654;51.142;14.924;2023-05-19T07:12:59;100112.25;;;15.20;53.54
63500;BME280;49654;51.142;14.924;2023-05-19T07:15:26;100090.31;;;15.07;53.41
63500;BME280;49654;51.142;14.924;2023-05-19T07:17:53;100108.34;;;15.31;52.80
63500;BME280;49654;51.142;14.924;2023-05-19T07:20:20;100111.84;;;15.53;52.81
63500;BME280;49654;51.142;14.924;2023-05-19T07:22:48;100101.56;;;15.88;51.29
63500;BME280;49654;51.142;14.924;2023-05-19T07:25:15;100112.84;;;16.31;49.03
63500;BME280;49654;51.142;14.924;2023-05-19T07:27:42;100094.94;;;16.35;48.85
63500;BME280;49654;51.142;14.924;2023-05-19T07:30:11;100102.31;;;16.46;50.13
63500;BME280;49654;51.142;14.924;2023-05-19T07:32:38;100111.38;;;16.71;48.06
63500;BME280;49654;51.142;14.924;2023-05-19T07:35:05;100116.88;;;17.05;48.88
63500;BME280;49654;51.142;14.924;2023-05-19T07:37:32;100119.66;;;16.96;49.76
63500;BME280;49654;51.142;14.924;2023-05-19T07:40:00;100121.91;;;17.06;49.29
63500;BME280;49654;51.142;14.924;2023-05-19T07:42:27;100111.34;;;16.93;50.05
63500;BME280;49654;51.142;14.924;2023-05-19T07:44:54;100110.56;;;16.99;48.34
63500;BME280;49654;51.142;14.924;2023-05-19T07:47:21;100103.50;;;17.41;49.16
63500;BME280;49654;51.142;14.924;2023-05-19T07:49:48;100111.06;;;17.64;47.89
63500;BME280;49654;51.142;14.924;2023-05-19T07:52:14;100106.56;;;17.51;47.61
63500;BME280;49654;51.142;14.924;2023-05-19T07:54:43;100123.88;;;17.80;48.24
63500;BME280;49654;51.142;14.924;2023-05-19T07:57:11;100117.69;;;17.53;48.30
63500;BME280;49654;51.142;14.924;2023-05-19T07:59:39;100130.59;;;17.96;45.88
63500;BME280;49654;51.142;14.924;2023-05-19T08:02:06;100087.69;;;17.75;46.83
63500;BME280;49654;51.142;14.924;2023-05-19T08:04:33;100118.13;;;17.15;48.81
63500;BME280;49654;51.142;14.924;2023-05-19T08:07:00;100120.66;;;17.37;49.40
63500;BME280;49654;51.142;14.924;2023-05-19T08:09:27;100115.22;;;17.93;48.16
63500;BME280;49654;51.142;14.924;2023-05-19T08:11:54;100114.50;;;17.58;48.63
63500;BME280;49654;51.142;14.924;2023-05-19T08:14:22;100120.06;;;17.35;49.77
63500;BME280;49654;51.142;14.924;2023-05-19T08:16:49;100123.66;;;17.34;49.37
63500;BME280;49654;51.142;14.924;2023-05-19T08:19:16;100120.97;;;17.68;48.27
63500;BME280;49654;51.142;14.924;2023-05-19T08:21:43;100115.28;;;17.58;48.46
63500;BME280;49654;51.142;14.924;2023-05-19T08:24:10;100120.75;;;17.63;48.68
63500;BME280;49654;51.142;14.924;2023-05-19T08:26:37;100101.91;;;18.01;47.92
63500;BME280;49654;51.142;14.924;2023-05-19T08:29:04;100112.66;;;18.39;46.36
63500;BME280;49654;51.142;14.924;2023-05-19T08:31:32;100114.06;;;18.22;46.89
63500;BME280;49654;51.142;14.924;2023-05-19T08:33:59;100106.72;;;17.77;48.19
63500;BME280;49654;51.142;14.924;2023-05-19T08:36:26;100118.06;;;17.91;47.08
63500;BME280;49654;51.142;14.924;2023-05-19T08:38:54;100113.66;;;18.12;47.66
63500;BME280;49654;51.142;14.924;2023-05-19T08:41:21;100111.59;;;18.00;47.88
63500;BME280;49654;51.142;14.924;2023-05-19T08:43:48;100097.28;;;18.56;46.51
63500;BME280;49654;51.142;14.924;2023-05-19T08:46:15;100105.56;;;18.40;45.84
63500;BME280;49654;51.142;14.924;2023-05-19T08:48:46;100091.41;;;18.74;45.88
63500;BME280;49654;51.142;14.924;2023-05-19T08:51:19;100089.19;;;18.51;45.99
63500;BME280;49654;51.142;14.924;2023-05-19T08:53:49;100084.72;;;18.58;45.81
63500;BME280;49654;51.142;14.924;2023-05-19T08:56:20;100085.72;;;17.91;48.09
63500;BME280;49654;51.142;14.924;2023-05-19T08:58:48;100106.16;;;18.35;48.13
63500;BME280;49654;51.142;14.924;2023-05-19T09:01:16;100050.72;;;17.77;47.76
63500;BME280;49654;51.142;14.924;2023-05-19T09:03:45;100000.94;;;16.88;49.26
63500;BME280;49654;51.142;14.924;2023-05-19T09:06:14;100103.31;;;18.04;48.65
63500;BME280;49654;51.142;14.924;2023-05-19T09:08:42;100058.53;;;17.57;48.97
63500;BME280;49654;51.142;14.924;2023-05-19T09:11:10;100075.03;;;17.99;48.02
63500;BME280;49654;51.142;14.924;2023-05-19T09:13:37;100108.00;;;18.74;46.89
63500;BME280;49654;51.142;14.924;2023-05-19T09:16:04;100085.66;;;19.55;44.53
63500;BME280;49654;51.142;14.924;2023-05-19T09:18:31;100064.84;;;18.95;44.67
63500;BME280;49654;51.142;14.924;2023-05-19T09:21:00;100076.03;;;18.51;46.73
63500;BME280;49654;51.142;14.924;2023-05-19T09:23:29;100080.25;;;18.85;45.97
63500;BME280;49654;51.142;14.924;2023-05-19T09:26:00;100071.34;;;18.86;45.57
63500;BME280;49654;51.142;14.924;2023-05-19T09:28:29;100071.31;;;19.06;46.22
63500;BME280;49654;51.142;14.924;2023-05-19T09:30:58;100080.88;;;18.47;47.29
63500;BME280;49654;51.142;14.924;2023-05-19T09:33:25;100051.31;;;18.79;47.07
63500;BME280;49654;51.142;14.924;2023-05-19T09:35:52;100075.53;;;19.52;44.98
63500;BME280;49654;51.142;14.924;2023-05-19T09:38:21;100084.47;;;19.51;46.42
63500;BME280;49654;51.142;14.924;2023-05-19T09:40:49;100067.59;;;19.14;44.89
63500;BME280;49654;51.142;14.924;2023-05-19T09:43:16;100083.06;;;17.77;49.00
63500;BME280;49654;51.142;14.924;2023-05-19T09:45:43;100085.59;;;17.58;50.63
63500;BME280;49654;51.142;14.924;2023-05-19T09:48:10;100086.75;;;18.43;47.13
63500;BME280;49654;51.142;14.924;2023-05-19T09:50:37;100080.06;;;18.60;46.53
63500;BME280;49654;51.142;14.924;2023-05-19T09:53:04;100091.69;;;19.17;46.60
63500;BME280;49654;51.142;14.924;2023-05-19T09:55:33;100073.91;;;19.96;44.52
63500;BME280;49654;51.142;14.924;2023-05-19T09:58:00;100062.66;;;20.07;44.01
63500;BME280;49654;51.142;14.924;2023-05-19T10:00:29;100084.66;;;19.63;44.54
63500;BME280;49654;51.142;14.924;2023-05-19T10:02:58;100071.16;;;18.61;47.08
63500;BME280;49654;51.142;14.924;2023-05-19T10:05:27;100088.19;;;18.25;48.61
63500;BME280;49654;51.142;14.924;2023-05-19T10:07:55;100080.06;;;18.14;48.90
63500;BME280;49654;51.142;14.924;2023-05-19T10:10:22;100080.09;;;18.47;48.09
63500;BME280;49654;51.142;14.924;2023-05-19T10:12:50;100077.59;;;18.92;46.71
63500;BME280;49654;51.142;14.924;2023-05-19T10:15:18;100044.13;;;19.06;47.06
63500;BME280;49654;51.142;14.924;2023-05-19T10:17:45;100078.31;;;19.25;46.59
63500;BME280;49654;51.142;14.924;2023-05-19T10:20:13;100069.53;;;18.87;46.80
63500;BME280;49654;51.142;14.924;2023-05-19T10:22:43;100059.94;;;19.12;45.69
63500;BME280;49654;51.142;14.924;2023-05-19T10:25:11;100074.50;;;19.66;46.40
63500;BME280;49654;51.142;14.924;2023-05-19T10:27:41;100062.72;;;20.00;46.11
63500;BME280;49654;51.142;14.924;2023-05-19T10:30:13;100070.03;;;20.23;44.44
63500;BME280;49654;51.142;14.924;2023-05-19T10:32:43;100059.84;;;20.77;44.15
63500;BME280;49654;51.142;14.924;2023-05-19T10:35:19;100066.44;;;21.41;42.87
63500;BME280;49654;51.142;14.924;2023-05-19T10:37:56;100059.44;;;21.47;41.31
63500;BME280;49654;51.142;14.924;2023-05-19T10:40:27;100065.72;;;21.64;41.07
63500;BME280;49654;51.142;14.924;2023-05-19T10:43:12;100056.63;;;22.02;39.62
63500;BME280;49654;51.142;14.924;2023-05-19T10:45:47;100062.63;;;21.79;40.71
63500;BME280;49654;51.142;14.924;2023-05-19T10:48:14;100058.88;;;20.46;44.59
63500;BME280;49654;51.142;14.924;2023-05-19T10:50:45;100050.66;;;20.11;44.32
63500;BME280;49654;51.142;14.924;2023-05-19T10:53:13;100058.59;;;20.61;44.46
63500;BME280;49654;51.142;14.924;2023-05-19T10:55:44;100058.84;;;20.53;44.17
63500;BME280;49654;51.142;14.924;2023-05-19T10:58:12;100047.53;;;20.46;42.73
63500;BME280;49654;51.142;14.924;2023-05-19T11:00:39;100059.88;;;19.70;45.70
63500;BME280;49654;51.142;14.924;2023-05-19T11:03:15;100061.03;;;19.81;45.58
63500;BME280;49654;51.142;14.924;2023-05-19T11:05:42;100058.84;;;19.71;47.24
63500;BME280;49654;51.142;14.924;2023-05-19T11:08:10;100060.66;;;20.02;44.40
63500;BME280;49654;51.142;14.924;2023-05-19T11:10:38;100005.31;;;20.46;44.34
63500;BME280;49654;51.142;14.924;2023-05-19T11:13:05;100061.91;;;22.02;42.03
63500;BME280;49654;51.142;14.924;2023-05-19T11:15:34;100063.63;;;21.55;42.63
63500;BME280;49654;51.142;14.924;2023-05-19T11:18:02;100066.81;;;21.08;42.95
63500;BME280;49654;51.142;14.924;2023-05-19T11:20:31;100068.75;;;20.33;44.46
63500;BME280;49654;51.142;14.924;2023-05-19T11:23:03;100065.53;;;19.22;46.71
63500;BME280;49654;51.142;14.924;2023-05-19T11:25:44;100062.34;;;19.59;46.30
63500;BME280;49654;51.142;14.924;2023-05-19T11:28:15;100064.38;;;20.52;45.09
63500;BME280;49654;51.142;14.924;2023-05-19T11:30:44;100056.38;;;21.32;42.93
63500;BME280;49654;51.142;14.924;2023-05-19T11:33:12;100067.06;;;21.55;41.60
63500;BME280;49654;51.142;14.924;2023-05-19T11:35:41;100057.69;;;21.41;42.94
63500;BME280;49654;51.142;14.924;2023-05-19T11:38:09;100062.97;;;22.83;39.35
63500;BME280;49654;51.142;14.924;2023-05-19T11:40:37;100062.53;;;22.51;40.62
63500;BME280;49654;51.142;14.924;2023-05-19T11:43:04;100060.44;;;22.77;40.60
63500;BME280;49654;51.142;14.924;2023-05-19T11:45:32;100058.56;;;21.95;40.74
63500;BME280;49654;51.142;14.924;2023-05-19T11:48:00;100063.56;;;22.97;40.08
63500;BME280;49654;51.142;14.924;2023-05-19T11:50:28;100054.31;;;22.99;39.52
63500;BME280;49654;51.142;14.924;2023-05-19T11:52:58;100060.06;;;22.03;40.53
63500;BME280;49654;51.142;14.924;2023-05-19T11:55:26;100054.63;;;21.86;40.91
63500;BME280;49654;51.142;14.924;2023-05-19T11:57:56;100065.63;;;22.83;39.65
63500;BME280;49654;51.142;14.924;2023-05-19T12:00:24;100053.31;;;23.58;37.73
63500;BME280;49654;51.142;14.924;2023-05-19T12:02:51;100056.38;;;23.09;38.79
63500;BME280;49654;51.142;14.924;2023-05-19T12:05:19;100060.56;;;21.69;41.40
63500;BME280;49654;51.142;14.924;2023-05-19T12:07:47;100063.06;;;20.97;43.20
63500;BME280;49654;51.142;14.924;2023-05-19T12:10:18;100055.56;;;20.58;43.84
63500;BME280;49654;51.142;14.924;2023-05-19T12:12:47;100054.88;;;21.54;42.84
63500;BME280;49654;51.142;14.924;2023-05-19T12:15:14;100051.34;;;23.65;39.08
63500;BME280;49654;51.142;14.924;2023-05-19T12:17:41;100054.75;;;26.08;32.58
63500;BME280;49654;51.142;14.924;2023-05-19T12:20:13;100025.19;;;24.58;36.05
63500;BME280;49654;51.142;14.924;2023-05-19T12:22:40;100062.91;;;24.77;34.45
63500;BME280;49654;51.142;14.924;2023-05-19T12:25:08;100058.28;;;24.33;36.75
63500;BME280;49654;51.142;14.924;2023-05-19T12:27:36;100045.03;;;24.16;36.99
63500;BME280;49654;51.142;14.924;2023-05-19T12:30:04;100035.50;;;25.42;34.89
63500;BME280;49654;51.142;14.924;2023-05-19T12:32:32;100042.44;;;25.70;33.75
63500;BME280;49654;51.142;14.924;2023-05-19T12:35:02;100037.63;;;26.89;32.96
63500;BME280;49654;51.142;14.924;2023-05-19T12:37:30;100019.56;;;25.42;33.79
63500;BME280;49654;51.142;14.924;2023-05-19T12:39:58;100032.38;;;24.79;34.60
63500;BME280;49654;51.142;14.924;2023-05-19T12:42:26;100044.34;;;24.60;35.01
63500;BME280;49654;51.142;14.924;2023-05-19T12:44:59;99998.00;;;25.43;33.88
63500;BME280;49654;51.142;14.924;2023-05-19T12:47:31;100030.06;;;27.49;31.12
63500;BME280;49654;51.142;14.924;2023-05-19T12:50:03;100011.19;;;28.01;30.37